sensor_id;sensor_type;location;lat;lon;timestamp;pressure;altitude;pressure_sealevel;temperature;humidity
76496;BME280;65329;52.544;4.662;2023-05-07T00:02:08;117940.31;;;-139.74;0.00
76496;BME280;65329;52.544;4.662;2023-05-07T00:04:37;117940.31;;;-139.74;0.00
76496;BME280;65329;52.544;4.662;2023-05-07T00:07:05;117940.31;;;-139.74;0.00
76496;BME280;65329;52.544;4.662;2023-05-07T00:09:32;117940.31;;;-139.74;0.00
76496;BME280;65329;52.544;4.662;2023-05-07T00:11:59;117940.31;;;-139.74;0.00
76496;BME280;65329;52.544;4.662;2023-05-07T00:14:26;117940.31;;;-139.74;0.00
76496;BME280;65329;52.544;4.662;2023-05-07T00:16:53;117940.31;;;-139.74;0.00
76496;BME280;65329;52.544;4.662;2023-05-07T00:19:20;117940.31;;;-139.74;0.00
76496;BME280;65329;52.544;4.662;2023-05-07T00:21:47;117940.31;;;-139.74;0.00
76496;BME280;65329;52.544;4.662;2023-05-07T00:24:14;117940.31;;;-139.74;0.00
76496;BME280;65329;52.544;4.662;2023-05-07T00:26:41;117940.31;;;-139.74;0.00
76496;BME280;65329;52.544;4.662;2023-05-07T00:29:08;117940.31;;;-139.74;0.00
76496;BME280;65329;52.544;4.662;2023-05-07T00:31:35;117940.31;;;-139.74;0.00
76496;BME280;65329;52.544;4.662;2023-05-07T00:34:02;117940.31;;;-139.74;0.00
76496;BME280;65329;52.544;4.662;2023-05-07T00:36:29;117940.31;;;-139.74;0.00
76496;BME280;65329;52.544;4.662;2023-05-07T00:38:59;117940.31;;;-139.74;0.00
76496;BME280;65329;52.544;4.662;2023-05-07T00:41:26;117940.31;;;-139.74;0.00
76496;BME280;65329;52.544;4.662;2023-05-07T00:43:53;117940.31;;;-139.74;0.00
76496;BME280;65329;52.544;4.662;2023-05-07T00:46:20;117940.31;;;-139.74;0.00
76496;BME280;65329;52.544;4.662;2023-05-07T00:48:48;117940.31;;;-139.74;0.00
76496;BME280;65329;52.544;4.662;2023-05-07T00:51:17;117940.31;;;-139.74;0.00
76496;BME280;65329;52.544;4.662;2023-05-07T00:53:45;117940.31;;;-139.74;0.00
76496;BME280;65329;52.544;4.662;2023-05-07T00:56:11;117940.31;;;-139.74;0.00
76496;BME280;65329;52.544;4.662;2023-05-07T00:58:40;117940.31;;;-139.74;0.00
76496;BME280;65329;52.544;4.662;2023-05-07T01:01:07;117940.31;;;-139.74;0.00
76496;BME280;65329;52.544;4.662;2023-05-07T01:03:34;117940.31;;;-139.74;0.00
76496;BME280;65329;52.544;4.662;2023-05-07T01:06:02;117940.31;;;-139.74;0.00
76496;BME280;65329;52.544;4.662;2023-05-07T01:08:31;117940.31;;;-139.74;0.00
76496;BME280;65329;52.544;4.662;2023-05-07T01:11:00;117940.31;;;-139.74;0.00
76496;BME280;65329;52.544;4.662;2023-05-07T01:13:28;117940.31;;;-139.74;0.00
76496;BME280;65329;52.544;4.662;2023-05-07T01:15:56;117940.31;;;-139.74;0.00
76496;BME280;65329;52.544;4.662;2023-05-07T01:18:23;117940.31;;;-139.74;0.00
76496;BME280;65329;52.544;4.662;2023-05-07T01:20:51;117940.31;;;-139.74;0.00
76496;BME280;65329;52.544;4.662;2023-05-07T01:23:19;117940.31;;;-139.74;0.00
76496;BME280;65329;52.544;4.662;2023-05-07T01:25:55;117940.31;;;-139.74;0.00
76496;BME280;65329;52.544;4.662;2023-05-07T01:28:25;117940.31;;;-139.74;0.00
76496;BME280;65329;52.544;4.662;2023-05-07T01:31:00;117940.31;;;-139.74;0.00
76496;BME280;65329;52.544;4.662;2023-05-07T01:33:29;117940.31;;;-139.74;0.00
76496;BME280;65329;52.544;4.662;2023-05-07T01:35:58;117940.31;;;-139.74;0.00
76496;BME280;65329;52.544;4.662;2023-05-07T01:38:29;117940.31;;;-139.74;0.00
76496;BME280;65329;52.544;4.662;2023-05-07T01:40:57;117940.31;;;-139.74;0.00
76496;BME280;65329;52.544;4.662;2023-05-07T01:43:24;117940.31;;;-139.74;0.00
76496;BME280;65329;52.544;4.662;2023-05-07T01:45:52;117940.31;;;-139.74;0.00
76496;BME280;65329;52.544;4.662;2023-05-07T01:48:20;117940.31;;;-139.74;0.00
76496;BME280;65329;52.544;4.662;2023-05-07T01:50:48;117940.31;;;-139.74;0.00
76496;BME280;65329;52.544;4.662;2023-05-07T01:53:15;117940.31;;;-139.74;0.00
76496;BME280;65329;52.544;4.662;2023-05-07T01:55:42;117940.31;;;-139.74;0.00
76496;BME280;65329;52.544;4.662;2023-05-07T01:58:09;117940.31;;;-139.74;0.00
76496;BME280;65329;52.544;4.662;2023-05-07T02:00:37;117940.31;;;-139.74;0.00
76496;BME280;65329;52.544;4.662;2023-05-07T02:03:04;117940.31;;;-139.74;0.00
76496;BME280;65329;52.544;4.662;2023-05-07T02:05:42;117940.31;;;-139.74;0.00
76496;BME280;65329;52.544;4.662;2023-05-07T02:08:16;117940.31;;;-139.74;0.00
76496;BME280;65329;52.544;4.662;2023-05-07T02:10:43;117940.31;;;-139.74;0.00
76496;BME280;65329;52.544;4.662;2023-05-07T02:13:10;117940.31;;;-139.74;0.00
76496;BME280;65329;52.544;4.662;2023-05-07T02:15:37;117940.31;;;-139.74;0.00
76496;BME280;65329;52.544;4.662;2023-05-07T02:18:08;117940.31;;;-139.74;0.00
76496;BME280;65329;52.544;4.662;2023-05-07T02:20:35;117940.31;;;-139.74;0.00
76496;BME280;65329;52.544;4.662;2023-05-07T02:23:02;117940.31;;;-139.74;0.00
76496;BME280;65329;52.544;4.662;2023-05-07T02:25:29;117940.31;;;-139.74;0.00
76496;BME280;65329;52.544;4.662;2023-05-07T02:27:57;117940.31;;;-139.74;0.00
76496;BME280;65329;52.544;4.662;2023-05-07T02:30:37;117940.31;;;-139.74;0.00
76496;BME280;65329;52.544;4.662;2023-05-07T02:33:04;117940.31;;;-139.74;0.00
76496;BME280;65329;52.544;4.662;2023-05-07T02:35:31;117940.31;;;-139.74;0.00
76496;BME280;65329;52.544;4.662;2023-05-07T02:37:58;117940.31;;;-139.74;0.00
76496;BME280;65329;52.544;4.662;2023-05-07T02:40:25;117940.31;;;-139.74;0.00
76496;BME280;65329;52.544;4.662;2023-05-07T02:42:53;117940.31;;;-139.74;0.00
76496;BME280;65329;52.544;4.662;2023-05-07T02:45:20;117940.31;;;-139.74;0.00
76496;BME280;65329;52.544;4.662;2023-05-07T02:47:49;117940.31;;;-139.74;0.00
76496;BME280;65329;52.544;4.662;2023-05-07T02:50:16;117940.31;;;-139.74;0.00
76496;BME280;65329;52.544;4.662;2023-05-07T02:52:42;117940.31;;;-139.74;0.00
76496;BME280;65329;52.544;4.662;2023-05-07T02:55:10;117940.31;;;-139.74;0.00
76496;BME280;65329;52.544;4.662;2023-05-07T02:57:37;117940.31;;;-139.74;0.00
76496;BME280;65329;52.544;4.662;2023-05-07T03:00:16;117940.31;;;-139.74;0.00
76496;BME280;65329;52.544;4.662;2023-05-07T03:03:19;117940.31;;;-139.74;0.00
76496;BME280;65329;52.544;4.662;2023-05-07T03:05:46;117940.31;;;-139.74;0.00
76496;BME280;65329;52.544;4.662;2023-05-07T03:08:13;117940.31;;;-139.74;0.00
76496;BME280;65329;52.544;4.662;2023-05-07T03:10:40;117940.31;;;-139.74;0.00
76496;BME280;65329;52.544;4.662;2023-05-07T03:13:07;117940.31;;;-139.74;0.00
76496;BME280;65329;52.544;4.662;2023-05-07T03:15:34;117940.31;;;-139.74;0.00
76496;BME280;65329;52.544;4.662;2023-05-07T03:18:03;117940.31;;;-139.74;0.00
76496;BME280;65329;52.544;4.662;2023-05-07T03:20:31;117940.31;;;-139.74;0.00
76496;BME280;65329;52.544;4.662;2023-05-07T03:22:59;117940.31;;;-139.74;0.00
76496;BME280;65329;52.544;4.662;2023-05-07T03:25:27;117940.31;;;-139.74;0.00
76496;BME280;65329;52.544;4.662;2023-05-07T03:27:55;117940.31;;;-139.74;0.00
76496;BME280;65329;52.544;4.662;2023-05-07T03:30:26;117940.31;;;-139.74;0.00
76496;BME280;65329;52.544;4.662;2023-05-07T03:32:53;117940.31;;;-139.74;0.00
76496;BME280;65329;52.544;4.662;2023-05-07T03:35:20;117940.31;;;-139.74;0.00
76496;BME280;65329;52.544;4.662;2023-05-07T03:37:47;117940.31;;;-139.74;0.00
76496;BME280;65329;52.544;4.662;2023-05-07T03:40:16;117940.31;;;-139.74;0.00
76496;BME280;65329;52.544;4.662;2023-05-07T03:42:47;117940.31;;;-139.74;0.00
76496;BME280;65329;52.544;4.662;2023-05-07T03:45:15;117940.31;;;-139.74;0.00
76496;BME280;65329;52.544;4.662;2023-05-07T03:47:47;117940.31;;;-139.74;0.00
76496;BME280;65329;52.544;4.662;2023-05-07T03:50:17;117940.31;;;-139.74;0.00
76496;BME280;65329;52.544;4.662;2023-05-07T03:52:44;117940.31;;;-139.74;0.00
76496;BME280;65329;52.544;4.662;2023-05-07T03:55:12;117940.31;;;-139.74;0.00
76496;BME280;65329;52.544;4.662;2023-05-07T03:57:45;117940.31;;;-139.74;0.00
76496;BME280;65329;52.544;4.662;2023-05-07T04:00:13;117940.31;;;-139.74;0.00
76496;BME280;65329;52.544;4.662;2023-05-07T04:02:46;117940.31;;;-139.74;0.00
76496;BME280;65329;52.544;4.662;2023-05-07T04:05:16;117940.31;;;-139.74;0.00
76496;BME280;65329;52.544;4.662;2023-05-07T04:07:47;117940.31;;;-139.74;0.00
76496;BME280;65329;52.544;4.662;2023-05-07T04:10:18;117940.31;;;-139.74;0.00
76496;BME280;65329;52.544;4.662;2023-05-07T04:12:47;117940.31;;;-139.74;0.00
76496;BME280;65329;52.544;4.662;2023-05-07T04:15:18;117940.31;;;-139.74;0.00
76496;BME280;65329;52.544;4.662;2023-05-07T04:17:46;117940.31;;;-139.74;0.00
76496;BME280;65329;52.544;4.662;2023-05-07T04:20:16;117940.31;;;-139.74;0.00
76496;BME280;65329;52.544;4.662;2023-05-07T04:22:48;117940.31;;;-139.74;0.00
76496;BME280;65329;52.544;4.662;2023-05-07T04:25:16;117940.31;;;-139.74;0.00
76496;BME280;65329;52.544;4.662;2023-05-07T04:27:43;117940.31;;;-139.74;0.00
76496;BME280;65329;52.544;4.662;2023-05-07T04:30:12;117940.31;;;-139.74;0.00
76496;BME280;65329;52.544;4.662;2023-05-07T04:32:40;117940.31;;;-139.74;0.00
76496;BME280;65329;52.544;4.662;2023-05-07T04:35:07;117940.31;;;-139.74;0.00
76496;BME280;65329;52.544;4.662;2023-05-07T04:37:34;117940.31;;;-139.74;0.00
76496;BME280;65329;52.544;4.662;2023-05-07T04:40:03;117940.31;;;-139.74;0.00
76496;BME280;65329;52.544;4.662;2023-05-07T04:42:30;117940.31;;;-139.74;0.00
76496;BME280;65329;52.544;4.662;2023-05-07T04:45:00;117940.31;;;-139.74;0.00
76496;BME280;65329;52.544;4.662;2023-05-07T04:47:30;117940.31;;;-139.74;0.00
76496;BME280;65329;52.544;4.662;2023-05-07T04:49:59;117940.31;;;-139.74;0.00
76496;BME280;65329;52.544;4.662;2023-05-07T04:52:26;117940.31;;;-139.74;0.00
76496;BME280;65329;52.544;4.662;2023-05-07T04:54:53;117940.31;;;-139.74;0.00
76496;BME280;65329;52.544;4.662;2023-05-07T04:57:20;117940.31;;;-139.74;0.00
76496;BME280;65329;52.544;4.662;2023-05-07T04:59:48;117940.31;;;-139.74;0.00
76496;BME280;65329;52.544;4.662;2023-05-07T05:02:16;117940.31;;;-139.74;0.00
76496;BME280;65329;52.544;4.662;2023-05-07T05:04:47;117940.31;;;-139.74;0.00
76496;BME280;65329;52.544;4.662;2023-05-07T05:07:14;117940.31;;;-139.74;0.00
76496;BME280;65329;52.544;4.662;2023-05-07T05:09:41;117940.31;;;-139.74;0.00
76496;BME280;65329;52.544;4.662;2023-05-07T05:12:09;117940.31;;;-139.74;0.00
76496;BME280;65329;52.544;4.662;2023-05-07T05:14:37;117940.31;;;-139.74;0.00
76496;BME280;65329;52.544;4.662;2023-05-07T05:17:05;117940.31;;;-139.74;0.00
76496;BME280;65329;52.544;4.662;2023-05-07T05:19:33;117940.31;;;-139.74;0.00
76496;BME280;65329;52.544;4.662;2023-05-07T05:22:00;117940.31;;;-139.74;0.00
76496;BME280;65329;52.544;4.662;2023-05-07T05:24:28;117940.31;;;-139.74;0.00
76496;BME280;65329;52.544;4.662;2023-05-07T05:26:55;117940.31;;;-139.74;0.00
76496;BME280;65329;52.544;4.662;2023-05-07T05:29:23;117940.31;;;-139.74;0.00
76496;BME280;65329;52.544;4.662;2023-05-07T05:31:50;117940.31;;;-139.74;0.00
76496;BME280;65329;52.544;4.662;2023-05-07T05:34:18;117940.31;;;-139.74;0.00
76496;BME280;65329;52.544;4.662;2023-05-07T05:36:46;117940.31;;;-139.74;0.00
76496;BME280;65329;52.544;4.662;2023-05-07T05:39:14;117940.31;;;-139.74;0.00
76496;BME280;65329;52.544;4.662;2023-05-07T05:41:41;117940.31;;;-139.74;0.00
76496;BME280;65329;52.544;4.662;2023-05-07T05:44:08;117940.31;;;-139.74;0.00
76496;BME280;65329;52.544;4.662;2023-05-07T05:46:36;117940.31;;;-139.74;0.00
76496;BME280;65329;52.544;4.662;2023-05-07T05:49:04;117940.31;;;-139.74;0.00
76496;BME280;65329;52.544;4.662;2023-05-07T05:51:31;117940.31;;;-139.74;0.00
76496;BME280;65329;52.544;4.662;2023-05-07T05:53:58;117940.31;;;-139.74;0.00
76496;BME280;65329;52.544;4.662;2023-05-07T05:56:27;117940.31;;;-139.74;0.00
76496;BME280;65329;52.544;4.662;2023-05-07T05:58:53;117940.31;;;-139.74;0.00
76496;BME280;65329;52.544;4.662;2023-05-07T06:01:21;117940.31;;;-139.74;0.00
76496;BME280;65329;52.544;4.662;2023-05-07T06:03:50;117940.31;;;-139.74;0.00
76496;BME280;65329;52.544;4.662;2023-05-07T06:06:17;117940.31;;;-139.74;0.00
76496;BME280;65329;52.544;4.662;2023-05-07T06:08:45;117940.31;;;-139.74;0.00
76496;BME280;65329;52.544;4.662;2023-05-07T06:11:16;117940.31;;;-139.74;0.00
76496;BME280;65329;52.544;4.662;2023-05-07T06:13:45;117940.31;;;-139.74;0.00
76496;BME280;65329;52.544;4.662;2023-05-07T06:16:12;117940.31;;;-139.74;0.00
76496;BME280;65329;52.544;4.662;2023-05-07T06:18:40;117940.31;;;-139.74;0.00
76496;BME280;65329;52.544;4.662;2023-05-07T06:21:07;117940.31;;;-139.74;0.00
76496;BME280;65329;52.544;4.662;2023-05-07T06:23:34;117940.31;;;-139.74;0.00
76496;BME280;65329;52.544;4.662;2023-05-07T06:26:03;117940.31;;;-139.74;0.00
76496;BME280;65329;52.544;4.662;2023-05-07T06:28:35;117940.31;;;-139.74;0.00
76496;BME280;65329;52.544;4.662;2023-05-07T06:31:12;117940.31;;;-139.74;0.00
76496;BME280;65329;52.544;4.662;2023-05-07T06:33:40;117940.31;;;-139.74;0.00
76496;BME280;65329;52.544;4.662;2023-05-07T06:36:07;117940.31;;;-139.74;0.00
76496;BME280;65329;52.544;4.662;2023-05-07T06:38:35;117940.31;;;-139.74;0.00
76496;BME280;65329;52.544;4.662;2023-05-07T06:41:02;117940.31;;;-139.74;0.00
76496;BME280;65329;52.544;4.662;2023-05-07T06:43:29;117940.31;;;-139.74;0.00
76496;BME280;65329;52.544;4.662;2023-05-07T06:46:13;117940.31;;;-139.74;0.00
76496;BME280;65329;52.544;4.662;2023-05-07T06:48:40;117940.31;;;-139.74;0.00
76496;BME280;65329;52.544;4.662;2023-05-07T06:51:06;117940.31;;;-139.74;0.00
76496;BME280;65329;52.544;4.662;2023-05-07T06:53:35;117940.31;;;-139.74;0.00
76496;BME280;65329;52.544;4.662;2023-05-07T06:56:03;117940.31;;;-139.74;0.00
76496;BME280;65329;52.544;4.662;2023-05-07T06:58:29;117940.31;;;-139.74;0.00
76496;BME280;65329;52.544;4.662;2023-05-07T07:00:57;117940.31;;;-139.74;0.00
76496;BME280;65329;52.544;4.662;2023-05-07T07:03:23;117940.31;;;-139.74;0.00
76496;BME280;65329;52.544;4.662;2023-05-07T07:05:53;117940.31;;;-139.74;0.00
76496;BME280;65329;52.544;4.662;2023-05-07T07:08:19;117940.31;;;-139.74;0.00
76496;BME280;65329;52.544;4.662;2023-05-07T07:10:48;117940.31;;;-139.74;0.00
76496;BME280;65329;52.544;4.662;2023-05-07T07:13:15;117940.31;;;-139.74;0.00
76496;BME280;65329;52.544;4.662;2023-05-07T07:15:43;117940.31;;;-139.74;0.00
76496;BME280;65329;52.544;4.662;2023-05-07T07:18:10;117940.31;;;-139.74;0.00
76496;BME280;65329;52.544;4.662;2023-05-07T07:20:37;117940.31;;;-139.74;0.00
76496;BME280;65329;52.544;4.662;2023-05-07T07:23:06;117940.31;;;-139.74;0.00
76496;BME280;65329;52.544;4.662;2023-05-07T07:25:35;117940.31;;;-139.74;0.00
76496;BME280;65329;52.544;4.662;2023-05-07T07:28:06;117940.31;;;-139.74;0.00
76496;BME280;65329;52.544;4.662;2023-05-07T07:30:35;117940.31;;;-139.74;0.00
76496;BME280;65329;52.544;4.662;2023-05-07T07:33:02;117940.31;;;-139.74;0.00
76496;BME280;65329;52.544;4.662;2023-05-07T07:35:33;117940.31;;;-139.74;0.00
76496;BME280;65329;52.544;4.662;2023-05-07T07:37:59;117940.31;;;-139.74;0.00
76496;BME280;65329;52.544;4.662;2023-05-07T07:40:27;49085.47;;;-139.74;0.00
76496;BME280;65329;52.544;4.662;2023-05-07T07:42:53;49095.88;;;-139.74;0.00
76496;BME280;65329;52.544;4.662;2023-05-07T07:45:21;49087.53;;;-139.74;0.00
76496;BME280;65329;52.544;4.662;2023-05-07T07:47:49;49087.53;;;-139.74;0.00
76496;BME280;65329;52.544;4.662;2023-05-07T07:53:02;49083.38;;;-139.74;0.00
76496;BME280;65329;52.544;4.662;2023-05-07T07:55:28;49083.38;;;-139.74;0.00
76496;BME280;65329;52.544;4.662;2023-05-07T07:57:55;49004.22;;;-139.74;0.00
76496;BME280;65329;52.544;4.662;2023-05-07T08:00:23;49087.53;;;-139.74;0.00
76496;BME280;65329;52.544;4.662;2023-05-07T08:02:53;49079.22;;;-139.74;0.00
76496;BME280;65329;52.544;4.662;2023-05-07T08:05:26;49085.47;;;-139.74;0.00
76496;BME280;65329;52.544;4.662;2023-05-07T08:07:53;49079.22;;;-139.74;0.00
76496;BME280;65329;52.544;4.662;2023-05-07T08:10:25;49089.63;;;-139.74;0.00
76496;BME280;65329;52.544;4.662;2023-05-07T08:13:01;49087.53;;;-139.74;0.00
76496;BME280;65329;52.544;4.662;2023-05-07T08:15:29;49089.63;;;-139.74;0.00
76496;BME280;65329;52.544;4.662;2023-05-07T08:17:56;49072.97;;;-139.74;0.00
76496;BME280;65329;52.544;4.662;2023-05-07T08:22:57;49083.38;;;-139.74;0.00
76496;BME280;65329;52.544;4.662;2023-05-07T08:25:25;49087.53;;;-139.74;0.00
76496;BME280;65329;52.544;4.662;2023-05-07T08:27:53;49091.72;;;-139.74;0.00
76496;BME280;65329;52.544;4.662;2023-05-07T08:30:21;49095.88;;;-139.74;0.00
76496;BME280;65329;52.544;4.662;2023-05-07T08:32:48;49095.88;;;-139.74;0.00
76496;BME280;65329;52.544;4.662;2023-05-07T08:35:15;49089.63;;;-139.74;0.00
76496;BME280;65329;52.544;4.662;2023-05-07T08:37:41;49091.72;;;-139.74;0.00
76496;BME280;65329;52.544;4.662;2023-05-07T08:40:08;49006.28;;;-139.74;0.00
76496;BME280;65329;52.544;4.662;2023-05-07T08:42:39;49000.03;;;-139.74;0.00
76496;BME280;65329;52.544;4.662;2023-05-07T08:45:09;49075.03;;;-139.74;0.00
76496;BME280;65329;52.544;4.662;2023-05-07T08:47:44;49085.47;;;-139.74;0.00
76496;BME280;65329;52.544;4.662;2023-05-07T08:50:15;49102.13;;;-139.74;0.00
76496;BME280;65329;52.544;4.662;2023-05-07T08:52:43;49104.22;;;-139.74;0.00
76496;BME280;65329;52.544;4.662;2023-05-07T08:55:11;49091.72;;;-139.74;0.00
76496;BME280;65329;52.544;4.662;2023-05-07T08:57:42;49085.47;;;-139.74;0.00
76496;BME280;65329;52.544;4.662;2023-05-07T09:02:38;49089.63;;;-139.74;0.00
76496;BME280;65329;52.544;4.662;2023-05-07T09:05:07;49087.53;;;-139.74;0.00
76496;BME280;65329;52.544;4.662;2023-05-07T09:07:35;49085.47;;;-139.74;0.00
76496;BME280;65329;52.544;4.662;2023-05-07T09:10:06;49100.03;;;-139.74;0.00
76496;BME280;65329;52.544;4.662;2023-05-07T09:12:36;49097.97;;;-139.74;0.00
76496;BME280;65329;52.544;4.662;2023-05-07T09:15:05;49095.88;;;-139.74;0.00
76496;BME280;65329;52.544;4.662;2023-05-07T09:17:32;49108.38;;;-139.74;0.00
76496;BME280;65329;52.544;4.662;2023-05-07T09:20:06;49095.88;;;-139.74;0.00
76496;BME280;65329;52.544;4.662;2023-05-07T09:22:37;49100.03;;;-139.74;0.00
76496;BME280;65329;52.544;4.662;2023-05-07T09:25:08;49104.22;;;-139.74;0.00
76496;BME280;65329;52.544;4.662;2023-05-07T09:27:37;49104.22;;;-139.74;0.00
76496;BME280;65329;52.544;4.662;2023-05-07T09:30:05;49095.88;;;-139.74;0.00
76496;BME280;65329;52.544;4.662;2023-05-07T09:32:35;49083.38;;;-139.74;0.00
76496;BME280;65329;52.544;4.662;2023-05-07T09:35:06;48997.97;;;-139.74;0.00
76496;BME280;65329;52.544;4.662;2023-05-07T09:37:40;48966.69;;;-139.74;0.00
76496;BME280;65329;52.544;4.662;2023-05-07T09:40:08;48945.88;;;-139.74;0.00
76496;BME280;65329;52.544;4.662;2023-05-07T09:42:46;48664.63;;;-139.74;0.00
76496;BME280;65329;52.544;4.662;2023-05-07T09:45:14;48879.22;;;-139.74;0.00
76496;BME280;65329;52.544;4.662;2023-05-07T09:47:42;48964.63;;;-139.74;0.00
76496;BME280;65329;52.544;4.662;2023-05-07T09:50:15;49085.47;;;-139.74;0.00
76496;BME280;65329;52.544;4.662;2023-05-07T09:52:44;49004.22;;;-139.74;0.00
76496;BME280;65329;52.544;4.662;2023-05-07T09:55:11;49087.53;;;-139.74;0.00
76496;BME280;65329;52.544;4.662;2023-05-07T09:57:39;49095.88;;;-139.74;0.00
76496;BME280;65329;52.544;4.662;2023-05-07T10:00:08;49104.22;;;-139.74;0.00
76496;BME280;65329;52.544;4.662;2023-05-07T10:02:51;49095.88;;;-139.74;0.00
76496;BME280;65329;52.544;4.662;2023-05-07T10:05:30;49102.13;;;-139.74;0.00
76496;BME280;65329;52.544;4.662;2023-05-07T10:07:59;49104.22;;;-139.74;0.00
76496;BME280;65329;52.544;4.662;2023-05-07T10:10:32;49095.88;;;-139.74;0.00
76496;BME280;65329;52.544;4.662;2023-05-07T10:13:01;49102.13;;;-139.74;0.00
76496;BME280;65329;52.544;4.662;2023-05-07T10:15:34;49097.97;;;-139.74;0.00
76496;BME280;65329;52.544;4.662;2023-05-07T10:18:03;49102.13;;;-139.74;0.00
76496;BME280;65329;52.544;4.662;2023-05-07T10:20:33;49095.88;;;-139.74;0.00
76496;BME280;65329;52.544;4.662;2023-05-07T10:23:03;49108.38;;;-139.74;0.00
76496;BME280;65329;52.544;4.662;2023-05-07T10:25:38;49104.22;;;-139.74;0.00
76496;BME280;65329;52.544;4.662;2023-05-07T10:28:13;49108.38;;;-139.74;0.00
76496;BME280;65329;52.544;4.662;2023-05-07T10:33:17;49072.97;;;-139.74;0.00
76496;BME280;65329;52.544;4.662;2023-05-07T10:35:47;49091.72;;;-139.74;0.00
76496;BME280;65329;52.544;4.662;2023-05-07T10:38:16;49104.22;;;-139.74;0.00
76496;BME280;65329;52.544;4.662;2023-05-07T10:40:45;49083.38;;;-139.74;0.00
76496;BME280;65329;52.544;4.662;2023-05-07T10:43:15;49095.88;;;-139.74;0.00
76496;BME280;65329;52.544;4.662;2023-05-07T10:46:15;49110.47;;;-139.74;0.00
76496;BME280;65329;52.544;4.662;2023-05-07T10:57:44;49112.53;;;-139.74;0.00
76496;BME280;65329;52.544;4.662;2023-05-07T11:03:07;49095.88;;;-139.74;0.00
76496;BME280;65329;52.544;4.662;2023-05-07T11:06:13;49083.38;;;-139.74;0.00
76496;BME280;65329;52.544;4.662;2023-05-07T11:11:56;49100.03;;;-139.74;0.00
76496;BME280;65329;52.544;4.662;2023-05-07T11:14:46;49075.03;;;-139.74;0.00
76496;BME280;65329;52.544;4.662;2023-05-07T11:17:18;49004.22;;;-139.74;0.00
76496;BME280;65329;52.544;4.662;2023-05-07T11:19:53;49000.03;;;-139.74;0.00
76496;BME280;65329;52.544;4.662;2023-05-07T11:25:09;32667.00;;;-139.74;0.00
76496;BME280;65329;52.544;4.662;2023-05-07T11:27:36;12279.97;;;-139.74;0.00
76496;BME280;65329;52.544;4.662;2023-05-07T11:30:03;-18597.69;;;-139.74;0.00
76496;BME280;65329;52.544;4.662;2023-05-07T11:32:32;-18597.69;;;-139.74;0.00
76496;BME280;65329;52.544;4.662;2023-05-07T11:35:00;-18597.69;;;-139.74;0.00
76496;BME280;65329;52.544;4.662;2023-05-07T11:37:27;-18597.69;;;-139.74;0.00
76496;BME280;65329;52.544;4.662;2023-05-07T11:40:07;-18597.69;;;-139.74;0.00
76496;BME280;65329;52.544;4.662;2023-05-07T11:42:40;-18597.69;;;-139.74;0.00
76496;BME280;65329;52.544;4.662;2023-05-07T11:45:10;-18597.69;;;-139.74;0.00
76496;BME280;65329;52.544;4.662;2023-05-07T11:47:38;-18597.69;;;-139.74;0.00
76496;BME280;65329;52.544;4.662;2023-05-07T11:50:08;-18597.69;;;-139.74;0.00
76496;BME280;65329;52.544;4.662;2023-05-07T11:52:37;-18597.69;;;-139.74;0.00
76496;BME280;65329;52.544;4.662;2023-05-07T11:55:07;-18597.69;;;-139.74;0.00
76496;BME280;65329;52.544;4.662;2023-05-07T11:57:34;-18597.69;;;-139.74;0.00
76496;BME280;65329;52.544;4.662;2023-05-07T12:00:15;-18597.69;;;-139.74;0.00
76496;BME280;65329;52.544;4.662;2023-05-07T12:02:43;-18597.69;;;-139.74;0.00
76496;BME280;65329;52.544;4.662;2023-05-07T12:05:10;-18597.69;;;-139.74;0.00
76496;BME280;65329;52.544;4.662;2023-05-07T12:07:38;-18597.69;;;-139.74;0.00
76496;BME280;65329;52.544;4.662;2023-05-07T12:10:05;-18597.69;;;-139.74;0.00
76496;BME280;65329;52.544;4.662;2023-05-07T12:12:45;-18597.69;;;-139.74;0.00
76496;BME280;65329;52.544;4.662;2023-05-07T12:15:16;-18597.69;;;-139.74;0.00
76496;BME280;65329;52.544;4.662;2023-05-07T12:17:43;-18597.69;;;-139.74;0.00
76496;BME280;65329;52.544;4.662;2023-05-07T12:20:10;-18597.69;;;-139.74;0.00
76496;BME280;65329;52.544;4.662;2023-05-07T12:22:37;-18597.69;;;-139.74;0.00
76496;BME280;65329;52.544;4.662;2023-05-07T12:25:05;-18597.69;;;-139.74;0.00
76496;BME280;65329;52.544;4.662;2023-05-07T12:27:36;-18597.69;;;-139.74;0.00
76496;BME280;65329;52.544;4.662;2023-05-07T12:30:04;-18597.69;;;-139.74;0.00
76496;BME280;65329;52.544;4.662;2023-05-07T12:32:32;-18597.69;;;-139.74;0.00
76496;BME280;65329;52.544;4.662;2023-05-07T12:35:05;-18597.69;;;-139.74;0.00
76496;BME280;65329;52.544;4.662;2023-05-07T12:37:32;-18597.69;;;-139.74;0.00
76496;BME280;65329;52.544;4.662;2023-05-07T12:40:13;-18597.69;;;-139.74;0.00
76496;BME280;65329;52.544;4.662;2023-05-07T12:42:40;-18597.69;;;-139.74;0.00
76496;BME280;65329;52.544;4.662;2023-05-07T12:45:16;-18597.69;;;-139.74;0.00
76496;BME280;65329;52.544;4.662;2023-05-07T12:47:44;-18597.69;;;-139.74;0.00
76496;BME280;65329;52.544;4.662;2023-05-07T12:50:13;-18597.69;;;-139.74;0.00
76496;BME280;65329;52.544;4.662;2023-05-07T12:52:40;-18597.69;;;-139.74;0.00
76496;BME280;65329;52.544;4.662;2023-05-07T12:55:08;-18597.69;;;-139.74;0.00
76496;BME280;65329;52.544;4.662;2023-05-07T12:57:40;-18597.69;;;-139.74;0.00
76496;BME280;65329;52.544;4.662;2023-05-07T13:00:08;-18597.69;;;-139.74;0.00
76496;BME280;65329;52.544;4.662;2023-05-07T13:02:39;-18597.69;;;-139.74;0.00
76496;BME280;65329;52.544;4.662;2023-05-07T13:05:08;-18597.69;;;-139.74;0.00
76496;BME280;65329;52.544;4.662;2023-05-07T13:07:37;-18597.69;;;-139.74;0.00
76496;BME280;65329;52.544;4.662;2023-05-07T13:10:04;-18597.69;;;-139.74;0.00
76496;BME280;65329;52.544;4.662;2023-05-07T13:12:31;-18597.69;;;-139.74;0.00
76496;BME280;65329;52.544;4.662;2023-05-07T13:14:58;-18597.69;;;-139.74;0.00
76496;BME280;65329;52.544;4.662;2023-05-07T13:17:25;-18597.69;;;-139.74;0.00
76496;BME280;65329;52.544;4.662;2023-05-07T13:19:52;-18597.69;;;-139.74;0.00
76496;BME280;65329;52.544;4.662;2023-05-07T13:22:19;-18597.69;;;-139.74;0.00